KHYS/HYS METAR and TAF weather

Enter ICAO airport designator
Station Type Date Time Source
KHYS METAR 2021/09/27 05:56 UTC NOAA

KHYS 270556Z AUTO 21007KT 10SM CLR 21/06 A2984 RMK AO2 SLP086 T02060056 10317 20206 403670139 51010 $


Station Type Date Time Source
KHYS Decoded METAR 2021/09/27 05:56 UTC NOAA

Hays, Hays Regional Airport, KS, United States (KHYS) 38-51N 099-16W
Sep 27, 2021 - 01:56 AM EDT / 2021.09.27 0556 UTC
Wind: from the SSW (210 degrees) at 8 MPH (7 KT):0
Visibility: 10 mile(s):0
Sky conditions: clear
Temperature: 69.1 F (20.6 C)
Dew Point: 42.1 F (5.6 C)
Relative Humidity: 37%
Pressure (altimeter): 29.84 in. Hg (1010 hPa)
Pressure tendency: 0.03 inches (1.0 hPa) higher than three hours ago
ob: KHYS 270556Z AUTO 21007KT 10SM CLR 21/06 A2984 RMK AO2 SLP086 T02060056 10317 20206 403670139 51010
cycle: 6

Station Type Date Time Source
KHYS TAF 2021/09/27 06:22 UTC NOAA

TAF KHYS 270520Z 2706/2806 19011KT P6SM FEW250
FM271700 15010KT P6SM FEW250

Example: see airport list